Nearby METAR Reports

 

KSJC - San Jose, California, USA
Distance from station: NE 9mi, 14km
Updated: Sat, 01-Oct-2022 11:53pm MDT
Mostly cloudy
Mostly cloudy
 Wind from NNE
Wind: NNE 3 mph , 6 km/h
Temperature: 64°F , 18°C
Dew Point: 55°F , 13°C
Humidity: 73%
Barometer: 29.89 inHg , 1012.2 hPa
Clouds: Mostly cloudy
Visibility: 10 miles , 16 km
Cloud details: Mostly cloudy 1800 ft
2022/10/02 05:53 KSJC 020553Z 03003KT 10SM BKN018 18/13 A2989 RMK AO2 SLP121 T01780133 10228 20172 51009 $
KNUQ - Moffett Nas/Mtn, California, USA
Distance from station: N 9mi, 14km
Updated: Sun, 02-Oct-2022 12:15am MDT
Overcast
Overcast
 Wind from SSE
Wind: SSE 6 mph , 9 km/h
Temperature: 64°F , 18°C
Dew Point: 57°F , 14°C
Humidity: 78%
Barometer: 29.89 inHg , 1012.2 hPa
Clouds: Overcast
Visibility: 10 miles , 16 km
Cloud details: Overcast 1700 ft
2022/10/02 06:15 KNUQ 020615Z AUTO 15005KT 10SM OVC017 18/14 A2989 RMK AO2
 
KPAO - Palo Alto, California, USA
Distance from station: NNW 14mi, 23km
Updated: Sat, 01-Oct-2022 9:47pm MDT
NOT Current
Partly cloudy
Partly cloudy
 Wind from WNW
Wind: WNW 7 mph , 11 km/h
Temperature: 61°F , 16°C
Dew Point: 55°F , 13°C
Humidity: 83%
Barometer: 29.88 inHg , 1011.9 hPa
Clouds: Partly cloudy
Visibility: 10 miles , 16 km
Cloud details: Partly cloudy 1800 ft
2022/10/02 03:47 KPAO 020347Z 29006KT 10SM SCT018 16/13 A2988 RMK LAST.
KRHV - San Jose/Reid, California, USA
Distance from station: ENE 12mi, 19km
Updated: Sat, 01-Oct-2022 10:55pm MDT
NOT Current
Overcast
Overcast
 Wind from NNW
Wind: NNW 6 mph , 9 km/h
Temperature: 63°F , 17°C
Dew Point: 55°F , 13°C
Humidity: 77%
Barometer: 29.90 inHg , 1012.5 hPa
Clouds: Overcast
Visibility: 10 miles , 16 km
Cloud details: Overcast 1500 ft
2022/10/02 04:55 KRHV 020455Z 34005KT 10SM OVC015 17/13 A2990 RMK LAST
 
KOAK - Oakland, California, USA
Distance from station: NNW 31mi, 50km
Updated: Sat, 01-Oct-2022 11:53pm MDT
Mostly cloudy
Mostly cloudy
 Wind from W
Wind: W 8 mph , 13 km/h
Temperature: 63°F , 17°C
Dew Point: 55°F , 13°C
Humidity: 77%
Barometer: 29.90 inHg , 1012.5 hPa
Clouds: Mostly cloudy
Visibility: 10 miles , 16 km
Cloud details: Partly cloudy 1500 ft
Mostly cloudy 1800 ft
2022/10/02 05:53 KOAK 020553Z 26007KT 10SM SCT015 BKN018 17/13 A2990 RMK AO2 SLP123 T01720133 10200 20172 51008
KSQL - San Carlos Airpo, California, USA
Distance from station: NW 21mi, 34km
Updated: Sun, 02-Oct-2022 12:15am MDT
Overcast
Overcast
 Wind from calm
Wind: Calm
Temperature: 63°F , 17°C
Dew Point: 55°F , 13°C
Humidity: 77%
Barometer: 29.91 inHg , 1012.9 hPa
Clouds: Overcast
Visibility: 10 miles , 16 km
Cloud details: Overcast 2100 ft
2022/10/02 06:15 KSQL 020615Z AUTO 00000KT 10SM OVC021 17/13 A2991 RMK AO2
 
KSFO - San Francisco, California, USA
Distance from station: NW 30mi, 49km
Updated: Sat, 01-Oct-2022 11:56pm MDT
Mostly cloudy
Mostly cloudy
 Wind from SW
Wind: SW 10 mph , 17 km/h
Temperature: 63°F , 17°C
Dew Point: 55°F , 13°C
Humidity: 77%
Barometer: 29.90 inHg , 1012.5 hPa
Clouds: Mostly cloudy
Visibility: 10 miles , 16 km
Cloud details: Few Clouds 1500 ft
Mostly cloudy 2300 ft
2022/10/02 05:56 KSFO 020556Z 23009KT 10SM FEW015 BKN023 17/13 A2990 RMK AO2 SLP123 T01720128 10194 20167 51010
KE16 - San Martin, California, USA
Distance from station: ESE 27mi, 43km
Updated: Sun, 02-Oct-2022 12:15am MDT
Overcast
Overcast
 Wind from SSE
Wind: SSE 7 mph , 11 km/h
Temperature: 61°F , 16°C
Dew Point: 55°F , 13°C
Humidity: 83%
Barometer: 29.92 inHg , 1013.2 hPa
Clouds: Overcast
Visibility: 10 miles , 16 km
Cloud details: Overcast 1300 ft
2022/10/02 06:15 KE16 020615Z AUTO 15006KT 10SM OVC013 16/13 A2992 RMK AO2 PWINO PNO
 
KWVI - Watsonville, California, USA
Distance from station: SSE 27mi, 44km
Updated: Sat, 01-Oct-2022 11:53pm MDT
Overcast
Overcast
 Wind from calm
Wind: Calm
Temperature: 61°F , 16°C
Dew Point: 55°F , 13°C
Humidity: 83%
Barometer: 29.92 inHg , 1013.2 hPa
Clouds: Overcast
Visibility: 10 miles , 16 km
Cloud details: Overcast 1300 ft
2022/10/02 05:53 KWVI 020553Z AUTO 00000KT 10SM OVC013 16/13 A2992 RMK AO2 SLP130 T01560133 10161 20144 51006
KHAF - Half Moon Bay, California, USA
Distance from station: WNW 31mi, 50km
Updated: Sun, 02-Oct-2022 12:15am MDT
Overcast
Overcast
 Wind from SSE
Wind: SSE 6 mph , 9 km/h
Temperature: 61°F , 16°C
Dew Point: 61°F , 16°C
Humidity: 100%
Barometer: 29.91 inHg , 1012.9 hPa
Clouds: Overcast
Visibility: 8 miles , 13 km
Cloud details: Overcast 1800 ft
2022/10/02 06:15 KHAF 020615Z AUTO 16005KT 8SM OVC018 16/16 A2991 RMK AO2
 
KHWD - Hayward, California, USA
Distance from station: N 28mi, 44km
Updated: Sat, 01-Oct-2022 11:54pm MDT
Overcast
Overcast
 Wind from W
Wind: W 8 mph , 13 km/h
Temperature: 63°F , 17°C
Dew Point: 55°F , 13°C
Humidity: 77%
Barometer: 29.89 inHg , 1012.2 hPa
Clouds: Overcast
Visibility: 10 miles , 16 km
Cloud details: Overcast 2100 ft
2022/10/02 05:54 KHWD 020554Z 27007KT 10SM OVC021 17/13 A2989 RMK AO2 SLP131 T01720133 10200 20172 51009
KLVK - Livermore, California, USA
Distance from station: NNE 31mi, 51km
Updated: Sat, 01-Oct-2022 11:53pm MDT
Overcast
Overcast
 Wind from W
Wind: W 9 mph , 15 km/h
Temperature: 61°F , 16°C
Dew Point: 55°F , 13°C
Humidity: 83%
Barometer: 29.88 inHg , 1011.9 hPa
Clouds: Overcast
Visibility: 10 miles , 16 km
Cloud details: Overcast 1500 ft
2022/10/02 05:53 KLVK 020553Z AUTO 27008KT 10SM OVC015 16/13 A2988 RMK AO2 SLP116 T01610133 10228 20150 51010